St Thomas, Virgin Islands
Current Conditions -  °F | °C
As of 9:00 AM on Monday 20 Oct 2014 (Local Time) from TUPJ Reporting Station
Scattered Clouds Scattered Clouds  
Wind Chill: 86°   Ceiling: Unl
Heat Index: 97°   Visibility: 6mi
Dew Point: 77°   Wind: 5mph
Humidity: 74%   Direction: NA
Pressure: 29.97"   Gusts: NA
Location:  18.3436°N, 64.9322°W
Report Text: TUPJ 201300Z VRB04KT 9999 SCT018 30/25 Q1015 RMK A2999
Loading
Personal Weather Stations






























Interactive Weather Map New forecast layout! Learn more

10-Day Weather Forecast

Advertisements
Track Severe Weather on mobile